Time;durP1;ratioP1;P1;durP2;ratioP2;P2;SDS_P1;SDS_P2;PMS_P1;PMS_P2;Temp;Humidity;BMP_temperature;BMP_pressure;BME280_temperature;BME280_humidity;BME280_pressure;Samples;Min_cycle;Max_cycle;Signal;HPM_P1;HPM_P2
2023/06/12 00:01:29;;;;;;;7.28;5.18;;;16.70;99.90;;;;;;4979209;28;20177;-80
2023/06/12 00:03:56;;;;;;;7.15;5.10;;;16.60;99.90;;;;;;4981052;28;20204;-80
2023/06/12 00:06:22;;;;;;;9.52;5.50;;;16.60;99.90;;;;;;4980157;28;20201;-80
2023/06/12 00:08:47;;;;;;;6.40;5.30;;;16.60;99.90;;;;;;4979150;28;20197;-80
2023/06/12 00:11:13;;;;;;;7.38;5.20;;;16.50;99.90;;;;;;4979396;28;20164;-80
2023/06/12 00:13:44;;;;;;;7.88;5.60;;;16.50;99.90;;;;;;4980352;28;20181;-80
2023/06/12 00:16:10;;;;;;;9.32;6.20;;;16.40;99.90;;;;;;4980166;28;20696;-80
2023/06/12 00:18:38;;;;;;;6.93;5.65;;;16.40;99.90;;;;;;4980459;28;20173;-80
2023/06/12 00:21:08;;;;;;;7.10;5.50;;;16.20;99.90;;;;;;4980697;28;20169;-80
2023/06/12 00:23:34;;;;;;;7.32;5.22;;;16.20;99.90;;;;;;4979393;28;20260;-80
2023/06/12 00:26:00;;;;;;;8.20;5.47;;;16.20;99.90;;;;;;4980906;28;20173;-80
2023/06/12 00:28:26;;;;;;;7.80;5.47;;;16.20;99.90;;;;;;4978781;28;20181;-80
2023/06/12 00:30:51;;;;;;;6.57;5.78;;;16.20;99.90;;;;;;4980583;28;20173;-80
2023/06/12 00:33:17;;;;;;;7.53;5.78;;;16.10;99.90;;;;;;4980874;28;20666;-80
2023/06/12 00:35:43;;;;;;;8.77;5.63;;;16.10;99.90;;;;;;4981075;28;20183;-80
2023/06/12 00:38:10;;;;;;;10.02;5.63;;;16.00;99.90;;;;;;4979169;28;20192;-80
2023/06/12 00:40:37;;;;;;;8.50;5.38;;;15.90;99.90;;;;;;4979325;28;20211;-80
2023/06/12 00:43:03;;;;;;;6.97;5.13;;;15.90;99.90;;;;;;4979215;28;20189;-80
2023/06/12 00:45:28;;;;;;;9.32;5.60;;;15.90;99.90;;;;;;4979676;28;20216;-80
2023/06/12 00:47:57;;;;;;;8.27;5.78;;;15.80;99.90;;;;;;4979640;28;20181;-80
2023/06/12 00:50:27;;;;;;;7.97;5.75;;;15.80;99.90;;;;;;4978770;28;20674;-80
2023/06/12 00:52:57;;;;;;;8.10;5.85;;;15.70;99.90;;;;;;4978725;28;20287;-80
2023/06/12 00:55:24;;;;;;;11.98;6.43;;;15.80;99.90;;;;;;4978377;28;20173;-80
2023/06/12 00:57:51;;;;;;;8.95;5.82;;;15.70;99.90;;;;;;4977723;28;20188;-80
2023/06/12 01:00:18;;;;;;;8.63;6.00;;;15.70;99.90;;;;;;4978589;28;20257;-80
2023/06/12 01:02:53;;;;;;;7.72;6.22;;;15.70;99.90;;;;;;4980162;28;20177;-80
2023/06/12 01:05:28;;;;;;;9.95;6.30;;;15.60;99.90;;;;;;4979165;28;20212;-80
2023/06/12 01:07:58;;;;;;;7.93;5.93;;;15.60;99.90;;;;;;4979932;28;20244;-80
2023/06/12 01:10:36;;;;;;;8.88;5.78;;;15.60;99.90;;;;;;4979990;28;20197;-80
2023/06/12 01:13:04;;;;;;;9.93;6.03;;;15.60;99.90;;;;;;4978597;28;20623;-80
2023/06/12 01:15:29;;;;;;;8.63;5.57;;;15.50;99.90;;;;;;4979708;28;20551;-80
2023/06/12 01:17:58;;;;;;;9.98;6.55;;;15.50;99.90;;;;;;4980322;28;20173;-80
2023/06/12 01:20:24;;;;;;;7.72;5.88;;;15.40;99.90;;;;;;4977836;28;20201;-80
2023/06/12 01:23:20;;;;;;;7.63;5.97;;;15.40;99.90;;;;;;4979497;28;20655;-80
2023/06/12 01:26:05;;;;;;;7.35;5.70;;;15.30;99.90;;;;;;4939983;28;20596;-80
2023/06/12 01:28:56;;;;;;;12.13;6.00;;;15.20;99.90;;;;;;4978460;28;20511;-80
2023/06/12 01:31:23;;;;;;;11.30;6.70;;;15.20;99.90;;;;;;4952350;28;20193;-80
2023/06/12 01:34:08;;;;;;;8.88;6.70;;;15.10;99.90;;;;;;4977602;28;20172;-80
2023/06/12 01:36:38;;;;;;;7.90;5.78;;;15.00;99.90;;;;;;4976985;28;20242;-80
2023/06/12 01:39:05;;;;;;;10.57;6.22;;;15.00;99.90;;;;;;4975857;28;20555;-80
2023/06/12 01:41:32;;;;;;;6.90;5.85;;;14.90;99.90;;;;;;4976576;28;20168;-80
2023/06/12 01:44:07;;;;;;;9.20;6.25;;;14.90;99.90;;;;;;4975480;28;20201;-80
2023/06/12 01:46:32;;;;;;;8.25;6.40;;;14.90;99.90;;;;;;4975610;28;20196;-81
2023/06/12 01:48:58;;;;;;;7.85;6.18;;;14.90;99.90;;;;;;4975554;28;20248;-80
2023/06/12 01:51:24;;;;;;;7.78;5.70;;;14.80;99.90;;;;;;4975926;28;20555;-80
2023/06/12 01:53:50;;;;;;;8.13;6.45;;;14.80;99.90;;;;;;4977819;28;20187;-80
2023/06/12 01:56:17;;;;;;;7.88;6.43;;;14.70;99.90;;;;;;4976423;28;20185;-80
2023/06/12 01:58:43;;;;;;;8.00;5.97;;;14.70;99.90;;;;;;4977546;28;20196;-80
2023/06/12 02:01:14;;;;;;;9.82;6.20;;;14.60;99.90;;;;;;4977706;28;20606;-80
2023/06/12 02:03:40;;;;;;;7.93;5.90;;;14.50;99.90;;;;;;4977828;28;20162;-80
2023/06/12 02:06:05;;;;;;;9.40;6.15;;;14.40;99.90;;;;;;4977769;28;20202;-80
2023/06/12 02:08:31;;;;;;;8.75;6.55;;;14.30;99.90;;;;;;4978612;28;20169;-80
2023/06/12 02:10:57;;;;;;;8.52;6.97;;;14.20;99.90;;;;;;4977502;28;20173;-80
2023/06/12 02:13:23;;;;;;;8.73;6.38;;;14.30;99.90;;;;;;4978087;28;20200;-80
2023/06/12 02:15:48;;;;;;;7.80;6.25;;;14.30;99.90;;;;;;4977610;28;20173;-80
2023/06/12 02:18:15;;;;;;;9.55;6.32;;;14.30;99.90;;;;;;4978375;28;20177;-80
2023/06/12 02:20:42;;;;;;;10.65;6.03;;;14.30;99.90;;;;;;4978910;28;20203;-80
2023/06/12 02:23:07;;;;;;;7.57;5.95;;;14.30;99.90;;;;;;4979527;28;20204;-80
2023/06/12 02:25:33;;;;;;;12.15;6.43;;;14.30;99.90;;;;;;4982381;28;20205;-80
2023/06/12 02:27:59;;;;;;;9.35;6.35;;;14.30;99.90;;;;;;4982026;28;20181;-80
2023/06/12 02:30:24;;;;;;;9.48;6.07;;;14.30;99.90;;;;;;4981449;28;20207;-80
2023/06/12 02:32:52;;;;;;;10.73;6.80;;;14.40;99.90;;;;;;4983420;28;20173;-80
2023/06/12 02:35:17;;;;;;;9.52;7.03;;;14.20;99.90;;;;;;4981709;28;20232;-80
2023/06/12 02:37:43;;;;;;;8.38;6.53;;;14.10;99.90;;;;;;4980214;28;20181;-80
2023/06/12 02:40:09;;;;;;;8.15;6.72;;;14.20;99.90;;;;;;4979304;28;20193;-80
2023/06/12 02:42:35;;;;;;;11.15;6.88;;;14.20;99.90;;;;;;4979543;28;20185;-80
2023/06/12 02:45:01;;;;;;;10.75;6.80;;;14.20;99.90;;;;;;4978395;28;20756;-80
2023/06/12 02:47:27;;;;;;;9.00;6.80;;;14.30;99.90;;;;;;4979113;28;20173;-80
2023/06/12 02:49:52;;;;;;;9.77;6.78;;;14.30;99.90;;;;;;4978258;28;20205;-80
2023/06/12 02:52:18;;;;;;;8.48;6.72;;;14.20;99.90;;;;;;4980275;28;20203;-80
2023/06/12 02:54:44;;;;;;;10.50;7.20;;;14.20;99.90;;;;;;4979317;28;20557;-80
2023/06/12 02:57:10;;;;;;;11.93;6.82;;;14.30;99.90;;;;;;4979319;28;20211;-80
2023/06/12 02:59:35;;;;;;;7.55;6.50;;;14.20;99.90;;;;;;4980298;28;20205;-80
2023/06/12 03:02:01;;;;;;;10.15;6.97;;;14.20;99.90;;;;;;4979819;28;20646;-80
2023/06/12 03:04:27;;;;;;;10.55;7.05;;;14.20;99.90;;;;;;4980526;28;20201;-80
2023/06/12 03:06:53;;;;;;;9.52;7.05;;;14.20;99.90;;;;;;4979389;28;20223;-80
2023/06/12 03:09:20;;;;;;;8.45;6.68;;;14.20;99.90;;;;;;4980646;28;20189;-80
2023/06/12 03:11:51;;;;;;;7.55;6.43;;;14.10;99.90;;;;;;4979191;28;20264;-80
2023/06/12 03:14:21;;;;;;;10.30;6.70;;;14.00;99.90;;;;;;4979654;28;20248;-80
2023/06/12 03:16:48;;;;;;;11.80;7.45;;;14.00;99.90;;;;;;4979413;28;20177;-80
2023/06/12 03:19:14;;;;;;;10.30;6.70;;;14.00;99.90;;;;;;4980136;28;20211;-80
2023/06/12 03:21:39;;;;;;;11.32;6.93;;;13.90;99.90;;;;;;4980501;28;20272;-80
2023/06/12 03:24:05;;;;;;;9.80;6.85;;;13.90;99.90;;;;;;4980978;28;20219;-80
2023/06/12 03:26:33;;;;;;;9.32;7.43;;;13.90;99.90;;;;;;4981076;28;20204;-80
2023/06/12 03:29:00;;;;;;;8.80;6.75;;;13.80;99.90;;;;;;4981443;28;20561;-80
2023/06/12 03:31:27;;;;;;;10.50;7.90;;;13.80;99.90;;;;;;4980592;28;20180;-80
2023/06/12 03:33:56;;;;;;;9.85;7.53;;;13.70;99.90;;;;;;4980023;28;20245;-80
2023/06/12 03:36:25;;;;;;;10.98;7.00;;;13.60;99.90;;;;;;4980337;28;20185;-80
2023/06/12 03:38:52;;;;;;;10.02;7.63;;;13.60;99.90;;;;;;4981138;28;20232;-81
2023/06/12 03:41:21;;;;;;;9.77;6.80;;;13.50;99.90;;;;;;4979095;28;20550;-79
2023/06/12 03:43:48;;;;;;;9.90;7.40;;;13.40;99.90;;;;;;4980860;28;20224;-79
2023/06/12 03:46:13;;;;;;;10.40;7.78;;;13.40;99.90;;;;;;4979639;28;20263;-79
2023/06/12 03:48:39;;;;;;;9.10;6.93;;;13.50;99.90;;;;;;4979347;28;20212;-79
2023/06/12 03:51:05;;;;;;;10.60;7.90;;;13.50;99.90;;;;;;4980087;28;20224;-79
2023/06/12 03:53:32;;;;;;;9.00;7.30;;;13.60;99.90;;;;;;4980191;28;20150;-79
2023/06/12 03:55:57;;;;;;;11.65;8.20;;;13.70;99.90;;;;;;4979618;28;20181;-79
2023/06/12 03:58:24;;;;;;;9.75;7.15;;;13.70;99.90;;;;;;4980614;28;20187;-79
2023/06/12 04:00:50;;;;;;;8.05;6.82;;;13.70;99.90;;;;;;4979989;28;20248;-79
2023/06/12 04:03:18;;;;;;;11.32;7.47;;;13.70;99.90;;;;;;4979112;28;20181;-79
2023/06/12 04:05:50;;;;;;;10.73;7.20;;;13.70;99.90;;;;;;4979867;28;20204;-79
2023/06/12 04:08:16;;;;;;;13.63;7.72;;;13.80;99.90;;;;;;4979915;28;20174;-79
2023/06/12 04:10:43;;;;;;;9.25;7.30;;;13.70;99.90;;;;;;4978723;28;20220;-80
2023/06/12 04:13:09;;;;;;;11.90;7.13;;;13.80;99.90;;;;;;4979585;28;20182;-80
2023/06/12 04:15:36;;;;;;;11.20;7.22;;;13.80;99.90;;;;;;4979160;28;20184;-80
2023/06/12 04:18:04;;;;;;;9.48;6.93;;;13.90;99.90;;;;;;4979920;28;20240;-80
2023/06/12 04:20:32;;;;;;;10.65;6.93;;;13.90;99.90;;;;;;4979533;28;20201;-80
2023/06/12 04:22:58;;;;;;;12.18;7.43;;;13.90;99.90;;;;;;4980255;28;20196;-80
2023/06/12 04:25:28;;;;;;;9.40;7.15;;;14.00;99.90;;;;;;4978806;28;20212;-80
2023/06/12 04:27:55;;;;;;;12.23;7.70;;;13.90;99.90;;;;;;4975848;28;20596;-80
2023/06/12 04:30:21;;;;;;;9.27;7.15;;;13.90;99.90;;;;;;4976923;28;20200;-80
2023/06/12 04:32:48;;;;;;;13.75;7.82;;;13.90;99.90;;;;;;4976933;28;20177;-80
2023/06/12 04:35:16;;;;;;;11.25;7.40;;;13.90;99.90;;;;;;4976796;28;20535;-80
2023/06/12 04:37:42;;;;;;;8.70;6.80;;;14.00;99.90;;;;;;4975588;28;20200;-80
2023/06/12 04:40:11;;;;;;;11.73;7.85;;;14.00;99.90;;;;;;4975630;28;20205;-80
2023/06/12 04:42:37;;;;;;;10.00;7.22;;;14.00;99.90;;;;;;4976932;28;20169;-79
2023/06/12 04:45:04;;;;;;;10.20;7.28;;;14.00;99.90;;;;;;4975442;28;20307;-79
2023/06/12 04:47:30;;;;;;;11.27;8.15;;;14.10;99.90;;;;;;4974674;28;20231;-79
2023/06/12 04:49:57;;;;;;;9.30;7.43;;;14.20;99.90;;;;;;4975293;28;20673;-80
2023/06/12 04:52:24;;;;;;;10.20;7.28;;;14.20;99.90;;;;;;4975028;28;20666;-80
2023/06/12 04:54:52;;;;;;;10.23;7.40;;;14.30;99.90;;;;;;4975084;28;20201;-80
2023/06/12 04:57:18;;;;;;;11.68;7.72;;;14.40;99.90;;;;;;4975756;28;20188;-80
2023/06/12 04:59:45;;;;;;;9.93;7.38;;;14.50;99.90;;;;;;4975160;28;20197;-80
2023/06/12 05:02:11;;;;;;;11.82;7.03;;;14.60;99.90;;;;;;4976319;28;20220;-80
2023/06/12 05:04:41;;;;;;;11.75;7.70;;;14.70;99.90;;;;;;4975059;28;20201;-80
2023/06/12 05:07:21;;;;;;;12.98;8.02;;;14.80;99.90;;;;;;4976997;28;20177;-80
2023/06/12 05:09:47;;;;;;;11.55;7.95;;;14.90;99.90;;;;;;4976179;28;20279;-80
2023/06/12 05:12:13;;;;;;;9.55;7.53;;;15.00;99.90;;;;;;4976462;28;20243;-80
2023/06/12 05:14:40;;;;;;;9.52;7.65;;;15.10;99.90;;;;;;4978494;28;20727;-80
2023/06/12 05:17:06;;;;;;;10.05;7.53;;;15.20;99.90;;;;;;4978684;28;20535;-80
2023/06/12 05:19:32;;;;;;;10.73;7.40;;;15.20;99.90;;;;;;4977356;28;20201;-80
2023/06/12 05:21:58;;;;;;;11.48;8.50;;;15.30;99.90;;;;;;4977470;28;20271;-80
2023/06/12 05:24:23;;;;;;;8.88;7.15;;;15.40;99.90;;;;;;4977205;28;20284;-81
2023/06/12 05:26:50;;;;;;;12.77;7.22;;;15.50;99.90;;;;;;4974903;28;20433;-81
2023/06/12 05:29:16;;;;;;;12.00;7.57;;;15.60;99.90;;;;;;4974937;28;20205;-81
2023/06/12 05:31:42;;;;;;;10.68;7.20;;;15.60;54.70;;;;;;4974640;28;20201;-81
2023/06/12 05:34:07;;;;;;;10.05;7.13;;;15.70;99.90;;;;;;4975997;28;20522;-82
2023/06/12 05:36:33;;;;;;;15.30;8.00;;;15.80;99.90;;;;;;4974305;28;20291;-82
2023/06/12 05:38:59;;;;;;;10.32;7.57;;;15.90;99.90;;;;;;4974210;28;20303;-82
2023/06/12 05:41:25;;;;;;;11.15;6.97;;;16.00;99.90;;;;;;4975532;28;20177;-82
2023/06/12 05:43:51;;;;;;;7.63;6.82;;;16.10;99.90;;;;;;4975550;28;20173;-82
2023/06/12 05:46:17;;;;;;;9.07;7.10;;;16.20;99.90;;;;;;4975701;28;20180;-82
2023/06/12 05:48:42;;;;;;;9.68;7.15;;;16.30;99.90;;;;;;4974137;28;20185;-82
2023/06/12 05:51:08;;;;;;;8.68;7.20;;;16.40;99.90;;;;;;4974377;28;20627;-82
2023/06/12 05:53:34;;;;;;;11.30;7.68;;;16.50;99.90;;;;;;4975637;28;20172;-82
2023/06/12 05:56:01;;;;;;;10.27;7.70;;;16.70;99.90;;;;;;4975719;28;20177;-82
2023/06/12 05:58:26;;;;;;;8.55;6.50;;;16.80;99.90;;;;;;4975699;28;20267;-82
2023/06/12 06:00:53;;;;;;;9.30;7.45;;;16.90;99.90;;;;;;4979277;28;20280;-82
2023/06/12 06:03:20;;;;;;;9.20;7.32;;;17.00;99.90;;;;;;4978597;28;20180;-82
2023/06/12 06:05:46;;;;;;;9.63;7.63;;;17.10;99.90;;;;;;4978700;28;20215;-82
2023/06/12 06:08:12;;;;;;;10.25;7.88;;;17.20;99.90;;;;;;4979787;28;20184;-82
2023/06/12 06:10:38;;;;;;;10.55;7.47;;;17.20;99.90;;;;;;4978656;28;20204;-82
2023/06/12 06:13:04;;;;;;;9.57;7.30;;;17.30;99.90;;;;;;4978440;28;20177;-82
2023/06/12 06:15:30;;;;;;;11.73;8.13;;;17.40;99.90;;;;;;4979862;28;20185;-82
2023/06/12 06:17:57;;;;;;;10.63;7.63;;;17.50;99.90;;;;;;4978604;28;20243;-82
2023/06/12 06:20:22;;;;;;;10.80;7.53;;;17.60;99.90;;;;;;4979327;28;20189;-82
2023/06/12 06:22:49;;;;;;;9.88;7.30;;;17.70;99.90;;;;;;4979041;28;20224;-82
2023/06/12 06:25:15;;;;;;;10.65;7.45;;;17.80;99.90;;;;;;4978506;28;20279;-82
2023/06/12 06:27:41;;;;;;;8.85;7.50;;;17.90;99.90;;;;;;4978818;28;20177;-83
2023/06/12 06:30:07;;;;;;;11.85;7.82;;;18.00;99.90;;;;;;4977181;28;20248;-83
2023/06/12 06:32:33;;;;;;;9.40;7.30;;;18.10;99.90;;;;;;4978357;28;20269;-83
2023/06/12 06:34:59;;;;;;;8.77;6.72;;;18.20;99.90;;;;;;4977351;28;20187;-83
2023/06/12 06:37:25;;;;;;;12.52;7.30;;;18.40;99.90;;;;;;4977545;28;20591;-83
2023/06/12 06:39:51;;;;;;;11.15;8.13;;;18.40;99.90;;;;;;4977643;28;20232;-83
2023/06/12 06:42:16;;;;;;;12.25;7.32;;;18.50;99.90;;;;;;4978636;28;20253;-83
2023/06/12 06:44:42;;;;;;;10.60;7.40;;;18.70;99.90;;;;;;4977037;28;20312;-83
2023/06/12 06:47:10;;;;;;;11.57;7.22;;;18.80;99.90;;;;;;4978959;28;20642;-83
2023/06/12 06:49:37;;;;;;;11.10;6.97;;;19.00;99.90;;;;;;4979537;28;20198;-82
2023/06/12 06:52:03;;;;;;;10.25;7.40;;;19.20;99.90;;;;;;4979095;28;20216;-82
2023/06/12 06:54:29;;;;;;;9.25;7.47;;;19.30;99.90;;;;;;4979447;28;20572;-82
2023/06/12 06:56:56;;;;;;;13.80;7.25;;;19.50;99.90;;;;;;4979275;28;20235;-82
2023/06/12 06:59:22;;;;;;;10.07;7.68;;;19.60;99.90;;;;;;4978077;28;20201;-82
2023/06/12 07:01:48;;;;;;;9.82;6.90;;;19.70;1.00;;;;;;4977360;28;20208;-82
2023/06/12 07:04:14;;;;;;;10.10;7.00;;;19.90;1.00;;;;;;4977611;28;20224;-82
2023/06/12 07:06:40;;;;;;;12.15;7.13;;;20.00;1.00;;;;;;4978343;28;20173;-83
2023/06/12 07:09:07;;;;;;;10.75;7.35;;;20.10;1.00;;;;;;4977141;28;20201;-82
2023/06/12 07:11:32;;;;;;;8.98;6.68;;;20.30;1.00;;;;;;4977161;28;20265;-83
2023/06/12 07:13:58;;;;;;;7.88;7.05;;;20.30;99.90;;;;;;4978515;28;20201;-83
2023/06/12 07:16:24;;;;;;;9.10;7.38;;;20.50;1.00;;;;;;4978016;28;20174;-83
2023/06/12 07:18:50;;;;;;;9.73;6.97;;;20.60;99.90;;;;;;4977862;28;20185;-83
2023/06/12 07:21:16;;;;;;;11.38;7.45;;;20.70;99.90;;;;;;4977997;28;20173;-83
2023/06/12 07:23:41;;;;;;;10.45;7.47;;;20.70;99.90;;;;;;4978006;28;20177;-83
2023/06/12 07:26:07;;;;;;;8.95;6.72;;;20.70;99.90;;;;;;4976656;28;20602;-83
2023/06/12 07:28:33;;;;;;;10.60;7.43;;;20.80;99.90;;;;;;4977127;28;20213;-82
2023/06/12 07:30:59;;;;;;;12.93;7.72;;;20.80;99.90;;;;;;4978026;28;20177;-82
2023/06/12 07:33:24;;;;;;;9.35;6.88;;;20.90;99.90;;;;;;4976693;28;20268;-83
2023/06/12 07:35:50;;;;;;;9.40;6.72;;;21.00;99.90;;;;;;4977663;28;20729;-83
2023/06/12 07:38:16;;;;;;;10.52;6.70;;;21.10;99.90;;;;;;4977875;28;20181;-83
2023/06/12 07:40:42;;;;;;;11.23;6.75;;;21.10;1.00;;;;;;4976366;28;20209;-83
2023/06/12 07:43:08;;;;;;;8.63;6.97;;;21.20;99.90;;;;;;4977681;28;20199;-83
2023/06/12 07:45:33;;;;;;;11.80;6.85;;;21.30;2.30;;;;;;4977673;28;20204;-83
2023/06/12 07:47:59;;;;;;;11.60;7.13;;;21.30;9.80;;;;;;4978025;28;20169;-83
2023/06/12 07:50:25;;;;;;;10.38;6.63;;;21.50;1.00;;;;;;4977594;28;20204;-82
2023/06/12 07:52:51;;;;;;;9.00;6.53;;;21.70;99.90;;;;;;4977881;28;20224;-82
2023/06/12 07:55:17;;;;;;;10.63;7.47;;;21.90;1.00;;;;;;4977428;28;20177;-83
2023/06/12 07:57:43;;;;;;;8.98;6.90;;;22.10;99.90;;;;;;4976472;28;20181;-83
2023/06/12 08:00:09;;;;;;;9.93;6.30;;;22.20;99.90;;;;;;4975958;28;20276;-83
2023/06/12 08:02:35;;;;;;;11.57;6.75;;;22.30;1.00;;;;;;4977563;28;20289;-83
2023/06/12 08:05:03;;;;;;;12.50;6.70;;;22.40;65.20;;;;;;4977472;28;20204;-83
2023/06/12 08:07:30;;;;;;;10.85;6.95;;;22.50;1.00;;;;;;4977426;28;20251;-83
2023/06/12 08:09:56;;;;;;;11.75;6.95;;;22.60;1.00;;;;;;4977129;28;20373;-82
2023/06/12 08:12:23;;;;;;;12.63;7.40;;;22.60;1.00;;;;;;4975976;28;20181;-83
2023/06/12 08:14:49;;;;;;;12.32;6.63;;;22.70;1.00;;;;;;4977804;28;20177;-83
2023/06/12 08:17:15;;;;;;;13.30;6.57;;;22.70;1.00;;;;;;4977454;28;20596;-83
2023/06/12 08:19:41;;;;;;;12.63;7.18;;;22.80;1.00;;;;;;4977036;28;20193;-83
2023/06/12 08:22:07;;;;;;;10.25;7.10;;;22.90;1.00;;;;;;4976875;28;20234;-83
2023/06/12 08:24:35;;;;;;;10.15;6.80;;;23.00;1.00;;;;;;4975764;28;20577;-83
2023/06/12 08:27:02;;;;;;;7.40;6.50;;;23.10;1.00;;;;;;4975626;28;20181;-83
2023/06/12 08:29:28;;;;;;;7.80;6.10;;;23.10;1.00;;;;;;4975930;28;20262;-82
2023/06/12 08:31:54;;;;;;;11.95;6.80;;;23.20;1.00;;;;;;4977261;28;20173;-83
2023/06/12 08:34:24;;;;;;;12.60;7.25;;;23.20;1.00;;;;;;4977153;28;20181;-83
2023/06/12 08:36:50;;;;;;;8.98;6.45;;;23.10;1.00;;;;;;4975777;28;20324;-83
2023/06/12 08:39:27;;;;;;;9.35;7.13;;;23.20;1.00;;;;;;4980313;28;20246;-82
2023/06/12 08:42:02;;;;;;;8.95;6.55;;;23.30;1.00;;;;;;4982352;28;20200;-81
2023/06/12 08:44:30;;;;;;;11.63;7.43;;;23.50;1.00;;;;;;4976686;28;20239;-82
2023/06/12 08:46:56;;;;;;;10.35;7.00;;;23.70;1.00;;;;;;4976414;28;20181;-83
2023/06/12 08:49:22;;;;;;;9.73;6.53;;;23.90;1.00;;;;;;4977634;28;20694;-83
2023/06/12 08:51:52;;;;;;;10.13;6.85;;;24.10;1.00;;;;;;4978208;28;20666;-83
2023/06/12 08:54:18;;;;;;;10.18;7.18;;;24.30;1.00;;;;;;4976930;28;20532;-83
2023/06/12 08:56:46;;;;;;;9.05;6.88;;;24.50;1.00;;;;;;4976621;28;20238;-83
2023/06/12 08:59:12;;;;;;;9.38;6.45;;;24.80;1.00;;;;;;4975173;28;20204;-83
2023/06/12 09:01:39;;;;;;;9.23;7.18;;;25.00;99.90;;;;;;4975106;28;20181;-83
2023/06/12 09:04:46;;;;;;;10.32;6.75;;;25.20;99.90;;;;;;4974124;28;20188;-83
2023/06/12 09:07:17;;;;;;;12.10;7.72;;;25.40;99.90;;;;;;4976545;28;20185;-82
2023/06/12 09:09:45;;;;;;;9.50;6.70;;;25.60;99.90;;;;;;4978046;28;20216;-82
2023/06/12 09:12:13;;;;;;;9.77;6.60;;;25.70;99.90;;;;;;4978375;28;20209;-81
2023/06/12 09:14:40;;;;;;;8.45;6.25;;;25.70;99.90;;;;;;4976476;28;20208;-81
2023/06/12 09:17:09;;;;;;;8.48;6.63;;;25.80;99.90;;;;;;4979570;28;20212;-80
2023/06/12 09:19:43;;;;;;;12.30;6.65;;;25.80;99.90;;;;;;4983079;28;20674;-81
2023/06/12 09:22:09;;;;;;;9.90;6.45;;;26.00;99.90;;;;;;4977213;28;20184;-81
2023/06/12 09:24:35;;;;;;;10.27;6.43;;;26.30;99.90;;;;;;4975050;28;20207;-83
2023/06/12 09:27:02;;;;;;;8.65;6.20;;;26.50;99.90;;;;;;4977744;28;20224;-83
2023/06/12 09:29:36;;;;;;;8.45;6.40;;;26.70;99.90;;;;;;4975299;28;20196;-84
2023/06/12 09:32:03;;;;;;;7.13;5.95;;;26.70;99.90;;;;;;4979552;28;20209;-85
2023/06/12 09:34:33;;;;;;;7.25;5.80;;;26.90;99.90;;;;;;4984781;28;20188;-85
2023/06/12 09:37:00;;;;;;;8.10;5.82;;;27.00;99.90;;;;;;4984099;28;20210;-85
2023/06/12 09:39:27;;;;;;;12.15;6.35;;;27.00;99.90;;;;;;4983774;28;20193;-84
2023/06/12 09:41:58;;;;;;;9.55;7.00;;;26.90;99.90;;;;;;4981766;28;20184;-84
2023/06/12 09:44:27;;;;;;;8.95;6.28;;;26.90;99.90;;;;;;4983046;28;20224;-84
2023/06/12 09:47:01;;;;;;;10.05;5.93;;;26.80;99.90;;;;;;4982439;28;20242;-84
2023/06/12 09:49:27;;;;;;;7.13;5.80;;;26.90;99.90;;;;;;4982322;28;20197;-84
2023/06/12 09:52:04;;;;;;;9.45;6.32;;;26.90;99.90;;;;;;4985536;28;20192;-84
2023/06/12 09:54:31;;;;;;;13.07;6.03;;;27.10;99.90;;;;;;4987780;28;20167;-81
2023/06/12 09:56:59;;;;;;;7.72;5.95;;;27.20;99.90;;;;;;4984438;28;20177;-80
2023/06/12 09:59:28;;;;;;;9.38;6.50;;;27.30;99.90;;;;;;4983519;28;20616;-80
2023/06/12 10:02:09;;;;;;;7.03;5.95;;;27.50;99.90;;;;;;4982608;28;20253;-87
2023/06/12 10:04:44;;;;;;;7.13;6.20;;;27.70;99.90;;;;;;4981435;28;20200;-83
2023/06/12 10:07:21;;;;;;;7.40;6.40;;;27.60;99.90;;;;;;4983311;28;20161;-85
2023/06/12 10:10:15;;;;;;;9.73;6.38;;;27.70;99.90;;;;;;4981325;28;20208;-84
2023/06/12 10:12:41;;;;;;;7.93;6.63;;;27.90;99.90;;;;;;4982491;28;20225;-84
2023/06/12 10:15:08;;;;;;;9.38;6.18;;;28.00;99.90;;;;;;4986664;28;20522;-85
2023/06/12 10:17:35;;;;;;;7.45;6.00;;;27.90;99.90;;;;;;4983507;28;20200;-85
2023/06/12 10:20:04;;;;;;;9.98;6.97;;;27.90;99.90;;;;;;4984740;28;20678;-86
2023/06/12 10:23:06;;;;;;;9.52;6.10;;;27.90;99.90;;;;;;4982331;28;20280;-86
2023/06/12 10:26:00;;;;;;;7.70;6.28;;;27.90;99.90;;;;;;4905712;29;20714;-87
2023/06/12 10:28:26;;;;;;;8.73;6.30;;;27.80;99.90;;;;;;4906528;29;20282;-84
2023/06/12 10:31:13;;;;;;;12.73;6.97;;;27.70;99.90;;;;;;4963597;28;20300;-85
2023/06/12 10:34:02;;;;;;;10.70;7.10;;;27.50;99.90;;;;;;4982978;28;20165;-85
2023/06/12 10:36:44;;;;;;;9.35;6.72;;;27.50;99.90;;;;;;4985746;28;20169;-86
2023/06/12 10:39:29;;;;;;;10.48;6.80;;;27.10;99.90;;;;;;4981168;28;20217;-87
2023/06/12 10:42:06;;;;;;;8.70;6.00;;;26.90;99.90;;;;;;4981304;28;20207;-88
2023/06/12 10:44:39;;;;;;;10.48;6.00;;;26.70;99.90;;;;;;4981693;28;20254;-86
2023/06/12 10:47:18;;;;;;;7.63;6.65;;;26.80;99.90;;;;;;4979456;28;20165;-87
2023/06/12 10:50:06;;;;;;;7.82;6.68;;;26.90;99.90;;;;;;4978376;28;20205;-87
2023/06/12 10:52:31;;;;;;;8.35;6.85;;;27.30;99.90;;;;;;4978607;28;20189;-87
2023/06/12 10:55:17;;;;;;;8.68;5.95;;;27.40;99.90;;;;;;4978118;28;20253;-84
2023/06/12 10:57:53;;;;;;;8.75;6.38;;;27.20;99.90;;;;;;4977412;28;20709;-86
2023/06/12 11:00:42;;;;;;;9.85;6.85;;;27.10;99.90;;;;;;4978039;28;20263;-87
2023/06/12 11:03:11;;;;;;;8.95;6.70;;;27.30;99.90;;;;;;4977666;28;20169;-87
2023/06/12 11:05:38;;;;;;;10.27;6.43;;;27.40;99.90;;;;;;4976773;28;20197;-86
2023/06/12 11:08:06;;;;;;;10.45;6.78;;;27.70;99.90;;;;;;4977339;28;20181;-86
2023/06/12 11:10:33;;;;;;;7.82;6.70;;;27.90;99.90;;;;;;4977040;28;20201;-88
2023/06/12 11:13:00;;;;;;;10.20;7.85;;;27.90;99.90;;;;;;4977311;28;20184;-86
2023/06/12 11:15:26;;;;;;;8.65;7.07;;;28.00;99.90;;;;;;4978098;28;20177;-86
2023/06/12 11:17:52;;;;;;;10.07;7.95;;;28.00;99.90;;;;;;4976714;28;20188;-86
2023/06/12 11:20:23;;;;;;;7.63;6.40;;;28.20;99.90;;;;;;4976995;28;20201;-87
2023/06/12 11:22:57;;;;;;;10.73;7.10;;;28.50;99.90;;;;;;4976909;28;20620;-88
2023/06/12 11:25:25;;;;;;;8.57;7.22;;;28.50;99.90;;;;;;4976585;28;20308;-88
2023/06/12 11:27:54;;;;;;;11.57;7.07;;;28.50;99.90;;;;;;4977215;28;20173;-87
2023/06/12 11:30:23;;;;;;;9.95;7.72;;;28.40;99.90;;;;;;4976338;28;20201;-87
2023/06/12 11:32:52;;;;;;;8.52;7.40;;;28.50;99.90;;;;;;4976467;28;20626;-88
2023/06/12 11:35:19;;;;;;;10.48;7.35;;;28.60;99.90;;;;;;4976542;28;20192;-88
2023/06/12 11:37:45;;;;;;;12.15;7.20;;;28.70;99.90;;;;;;4976666;28;20177;-89
2023/06/12 11:40:12;;;;;;;9.13;7.05;;;28.70;99.90;;;;;;4976681;28;20259;-87
2023/06/12 11:42:43;;;;;;;8.27;7.15;;;28.80;99.90;;;;;;4977225;28;20187;-86
2023/06/12 11:45:14;;;;;;;8.57;6.50;;;28.80;99.90;;;;;;4976503;28;20232;-86
2023/06/12 11:47:45;;;;;;;10.15;7.20;;;28.80;99.90;;;;;;4976392;28;20180;-86
2023/06/12 11:50:13;;;;;;;8.27;6.60;;;28.60;99.90;;;;;;4976359;28;20212;-86
2023/06/12 11:52:43;;;;;;;10.63;7.13;;;28.50;99.90;;;;;;4976947;28;20197;-87
2023/06/12 11:55:17;;;;;;;9.48;7.25;;;28.60;99.90;;;;;;4976733;28;20231;-87
2023/06/12 11:57:48;;;;;;;9.75;7.07;;;28.60;99.90;;;;;;4976349;28;20267;-87
2023/06/12 12:00:18;;;;;;;10.27;7.70;;;28.80;99.90;;;;;;4977391;28;20219;-86
2023/06/12 12:02:58;;;;;;;9.68;7.28;;;28.90;99.90;;;;;;4976177;28;20177;-87
2023/06/12 12:05:24;;;;;;;10.98;7.05;;;29.10;99.90;;;;;;4976195;28;20577;-87
2023/06/12 12:07:57;;;;;;;8.13;7.07;;;29.30;99.90;;;;;;4978247;28;20165;-87
2023/06/12 12:10:25;;;;;;;10.10;7.05;;;29.40;99.90;;;;;;4976839;28;20205;-87
2023/06/12 12:12:55;;;;;;;11.35;7.30;;;29.30;99.90;;;;;;4976652;28;20170;-87
2023/06/12 12:15:21;;;;;;;7.97;7.15;;;29.10;99.90;;;;;;4976750;28;20184;-87
2023/06/12 12:17:48;;;;;;;11.85;7.65;;;29.10;99.90;;;;;;4976776;28;20208;-87
2023/06/12 12:20:18;;;;;;;12.95;7.18;;;29.30;99.90;;;;;;4976502;28;20757;-87
2023/06/12 12:22:52;;;;;;;11.98;7.00;;;29.20;99.90;;;;;;4978836;28;20321;-87
2023/06/12 12:25:21;;;;;;;13.32;7.05;;;29.40;99.90;;;;;;4977052;28;20733;-87
2023/06/12 12:27:49;;;;;;;10.20;7.25;;;29.60;99.90;;;;;;4977904;28;20181;-86
2023/06/12 12:33:21;;;;;;;11.57;6.97;;;29.40;99.90;;;;;;4979565;28;20219;-86
2023/06/12 12:35:53;;;;;;;11.13;6.60;;;29.30;99.90;;;;;;4980836;28;20189;-87
2023/06/12 12:38:20;;;;;;;8.52;6.70;;;29.30;99.90;;;;;;4981773;28;20180;-87
2023/06/12 12:40:45;;;;;;;9.13;6.82;;;29.30;99.90;;;;;;4979014;28;20291;-87
2023/06/12 12:43:11;;;;;;;11.43;6.72;;;29.40;99.90;;;;;;4976903;28;20208;-87
2023/06/12 12:45:42;;;;;;;9.65;7.18;;;29.40;99.90;;;;;;4976693;28;20619;-86
2023/06/12 12:48:08;;;;;;;9.75;7.30;;;29.40;99.90;;;;;;4975089;28;20173;-86
2023/06/12 12:50:35;;;;;;;11.65;6.95;;;29.40;99.90;;;;;;4975154;28;20201;-86
2023/06/12 12:53:01;;;;;;;9.77;7.10;;;29.50;99.90;;;;;;4977409;28;20650;-86